GLO9571 SPJC-SBCF
Flight info
| Callsign | GLO9571 |
|---|---|
| Flight time | N/A |
| Altitude | 41000 |
| Route | PAKOL UM668 ZCO UV10 URC UM668 TRI UN420 VIR UM411 TITVO UZ82 ANSOK UZ42 VUREP |
| Aircraft | B738/M-SDFGIKLORWXY/LB1 |
Departure
| Time | 2026-04-29 14:47 |
|---|---|
| Airport | Jorge Chávez International Airport (SPJC) |
Arrival
| Time | N/A |
|---|---|
| Airport | Tancredo Neves International Airport (SBCF) |
| Time | Latitude | Longitude | Altitude | Speed | Heading |
|---|---|---|---|---|---|
| 2026-04-29 14:45 | -12.00941 | -77.12292 | 50 ft | 0 kts | 331° |
| 2026-04-29 14:45 | -12.00938 | -77.12293 | 50 ft | 2 kts | 331° |
| 2026-04-29 14:46 | -12.00890 | -77.12313 | 50 ft | 13 kts | 352° |
| 2026-04-29 14:46 | -12.00822 | -77.12233 | 48 ft | 20 kts | 65° |
| 2026-04-29 14:46 | -12.00807 | -77.12111 | 49 ft | 9 kts | 144° |
| 2026-04-29 14:46 | -12.00977 | -77.12030 | 49 ft | 64 kts | 154° |
| 2026-04-29 14:47 | -12.01624 | -77.11711 | 65 ft | 139 kts | 154° |
| 2026-04-29 14:47 | -12.02683 | -77.11193 | 182 ft | 193 kts | 156° |
| 2026-04-29 14:47 | -12.03915 | -77.10599 | 1082 ft | 200 kts | 155° |
| 2026-04-29 14:47 | -12.05128 | -77.10000 | 2257 ft | 195 kts | 154° |
| 2026-04-29 14:48 | -12.06437 | -77.09351 | 2672 ft | 221 kts | 154° |
| 2026-04-29 14:48 | -12.07887 | -77.08631 | 2958 ft | 242 kts | 153° |
| 2026-04-29 14:48 | -12.09476 | -77.07842 | 3307 ft | 266 kts | 153° |
| 2026-04-29 14:48 | -12.11180 | -77.06999 | 3991 ft | 274 kts | 154° |
| 2026-04-29 14:49 | -12.12899 | -77.06148 | 4809 ft | 276 kts | 154° |
| 2026-04-29 14:49 | -12.14657 | -77.05278 | 5526 ft | 282 kts | 154° |
| 2026-04-29 14:49 | -12.18409 | -77.03423 | 7053 ft | 289 kts | 154° |
| 2026-04-29 14:50 | -12.20212 | -77.02533 | 7764 ft | 292 kts | 154° |
| 2026-04-29 14:50 | -12.22056 | -77.01621 | 8486 ft | 295 kts | 154° |
| 2026-04-29 14:50 | -12.23842 | -77.00546 | 9164 ft | 299 kts | 137° |
| 2026-04-29 14:50 | -12.25088 | -76.98872 | 9870 ft | 300 kts | 117° |
| 2026-04-29 14:51 | -12.26038 | -76.96967 | 10389 ft | 310 kts | 116° |
| 2026-04-29 14:51 | -12.27019 | -76.94898 | 10552 ft | 332 kts | 115° |
| 2026-04-29 14:51 | -12.28041 | -76.92723 | 10782 ft | 348 kts | 115° |
| 2026-04-29 14:51 | -12.29101 | -76.90479 | 11277 ft | 354 kts | 115° |
| 2026-04-29 14:52 | -12.30190 | -76.88191 | 11950 ft | 355 kts | 116° |
| 2026-04-29 14:52 | -12.31270 | -76.85936 | 12603 ft | 357 kts | 116° |
| 2026-04-29 14:52 | -12.32376 | -76.83634 | 13198 ft | 360 kts | 116° |
| 2026-04-29 14:52 | -12.33473 | -76.81355 | 13803 ft | 363 kts | 116° |
| 2026-04-29 14:53 | -12.34601 | -76.79015 | 14339 ft | 364 kts | 116° |
| 2026-04-29 14:53 | -12.35723 | -76.76685 | 14915 ft | 366 kts | 116° |
| 2026-04-29 14:53 | -12.36849 | -76.74348 | 15479 ft | 367 kts | 116° |
| 2026-04-29 14:53 | -12.37980 | -76.71999 | 15991 ft | 370 kts | 116° |
| 2026-04-29 14:54 | -12.39113 | -76.69644 | 16521 ft | 373 kts | 115° |
| 2026-04-29 14:54 | -12.40269 | -76.67243 | 17062 ft | 375 kts | 115° |
| 2026-04-29 14:54 | -12.41416 | -76.64860 | 17601 ft | 377 kts | 115° |
| 2026-04-29 14:54 | -12.42571 | -76.62460 | 18127 ft | 379 kts | 115° |
| 2026-04-29 14:55 | -12.43757 | -76.60009 | 18608 ft | 381 kts | 115° |
| 2026-04-29 14:55 | -12.44937 | -76.57580 | 19031 ft | 385 kts | 116° |
| 2026-04-29 14:55 | -12.46134 | -76.55114 | 19474 ft | 387 kts | 116° |
| 2026-04-29 14:55 | -12.47325 | -76.52659 | 19903 ft | 389 kts | 116° |
| 2026-04-29 14:56 | -12.48529 | -76.50176 | 20343 ft | 392 kts | 116° |
| 2026-04-29 14:56 | -12.49754 | -76.47650 | 20789 ft | 394 kts | 116° |
| 2026-04-29 14:56 | -12.50960 | -76.45159 | 21221 ft | 396 kts | 116° |
| 2026-04-29 14:56 | -12.52191 | -76.42617 | 21640 ft | 398 kts | 116° |
| 2026-04-29 14:57 | -12.53422 | -76.40075 | 22044 ft | 401 kts | 116° |
| 2026-04-29 14:57 | -12.54665 | -76.37505 | 22446 ft | 403 kts | 116° |
| 2026-04-29 14:57 | -12.55900 | -76.34952 | 22857 ft | 406 kts | 116° |
| 2026-04-29 14:57 | -12.57162 | -76.32341 | 23274 ft | 408 kts | 116° |
| 2026-04-29 14:58 | -12.58417 | -76.29747 | 23671 ft | 409 kts | 116° |
| 2026-04-29 14:58 | -12.59680 | -76.27131 | 23974 ft | 412 kts | 116° |
| 2026-04-29 14:58 | -12.60966 | -76.24469 | 24238 ft | 416 kts | 116° |
| 2026-04-29 14:58 | -12.62262 | -76.21786 | 24491 ft | 420 kts | 116° |
| 2026-04-29 14:59 | -12.63550 | -76.19119 | 24807 ft | 422 kts | 116° |
| 2026-04-29 14:59 | -12.64863 | -76.16399 | 25116 ft | 425 kts | 116° |
| 2026-04-29 14:59 | -12.66176 | -76.13677 | 25346 ft | 430 kts | 116° |
| 2026-04-29 14:59 | -12.67499 | -76.10934 | 25585 ft | 433 kts | 116° |
| 2026-04-29 15:00 | -12.68842 | -76.08149 | 25846 ft | 437 kts | 116° |
| 2026-04-29 15:00 | -12.70182 | -76.05368 | 26104 ft | 440 kts | 116° |
| 2026-04-29 15:00 | -12.71549 | -76.02529 | 26378 ft | 443 kts | 116° |
| 2026-04-29 15:00 | -12.72908 | -75.99710 | 26662 ft | 445 kts | 116° |
| 2026-04-29 15:01 | -12.74285 | -75.96833 | 26948 ft | 448 kts | 114° |
| 2026-04-29 15:01 | -12.75322 | -75.93830 | 27199 ft | 451 kts | 104° |
| 2026-04-29 15:01 | -12.76076 | -75.90720 | 27482 ft | 453 kts | 102° |
| 2026-04-29 15:01 | -12.76772 | -75.87530 | 27731 ft | 456 kts | 101° |
| 2026-04-29 15:02 | -12.77449 | -75.84354 | 27985 ft | 460 kts | 102° |
| 2026-04-29 15:02 | -12.78148 | -75.81124 | 28286 ft | 462 kts | 102° |
| 2026-04-29 15:02 | -12.78855 | -75.77949 | 28550 ft | 465 kts | 102° |
| 2026-04-29 15:02 | -12.79598 | -75.74684 | 28782 ft | 468 kts | 102° |
| 2026-04-29 15:03 | -12.80348 | -75.71445 | 29070 ft | 470 kts | 102° |
| 2026-04-29 15:03 | -12.81107 | -75.68196 | 29325 ft | 472 kts | 102° |
| 2026-04-29 15:03 | -12.81882 | -75.64887 | 29534 ft | 475 kts | 102° |
| 2026-04-29 15:03 | -12.82653 | -75.61602 | 29757 ft | 478 kts | 102° |
| 2026-04-29 15:04 | -12.83424 | -75.58307 | 29998 ft | 479 kts | 102° |
| 2026-04-29 15:04 | -12.84202 | -75.54981 | 30219 ft | 482 kts | 102° |
| 2026-04-29 15:04 | -12.84985 | -75.51629 | 30431 ft | 484 kts | 102° |
| 2026-04-29 15:04 | -12.85773 | -75.48248 | 30624 ft | 485 kts | 102° |
| 2026-04-29 15:05 | -12.86557 | -75.44884 | 30825 ft | 487 kts | 102° |
| 2026-04-29 15:05 | -12.87080 | -75.42638 | 30955 ft | 488 kts | 102° |
| 2026-04-29 15:05 | -12.88125 | -75.38149 | 31237 ft | 489 kts | 102° |
| 2026-04-29 15:05 | -12.88916 | -75.34746 | 31475 ft | 489 kts | 102° |
| 2026-04-29 15:06 | -12.89704 | -75.31357 | 31731 ft | 488 kts | 101° |
| 2026-04-29 15:06 | -12.90497 | -75.27943 | 31999 ft | 488 kts | 101° |
| 2026-04-29 15:06 | -12.91278 | -75.24579 | 32254 ft | 488 kts | 101° |
| 2026-04-29 15:06 | -12.92060 | -75.21211 | 32497 ft | 488 kts | 101° |
| 2026-04-29 15:07 | -12.92847 | -75.17813 | 32758 ft | 487 kts | 101° |
| 2026-04-29 15:07 | -12.93627 | -75.14447 | 33027 ft | 487 kts | 101° |
| 2026-04-29 15:07 | -12.94410 | -75.11066 | 33278 ft | 488 kts | 101° |
| 2026-04-29 15:07 | -12.95188 | -75.07704 | 33525 ft | 488 kts | 101° |
| 2026-04-29 15:08 | -12.95974 | -75.04305 | 33774 ft | 488 kts | 101° |
| 2026-04-29 15:08 | -12.96752 | -75.00942 | 34034 ft | 488 kts | 101° |
| 2026-04-29 15:08 | -12.97277 | -74.98670 | 34222 ft | 487 kts | 100° |
| 2026-04-29 15:08 | -12.98053 | -74.95311 | 34507 ft | 486 kts | 100° |
| 2026-04-29 15:09 | -12.98837 | -74.91912 | 34755 ft | 485 kts | 100° |
| 2026-04-29 15:09 | -12.99611 | -74.88559 | 35046 ft | 483 kts | 100° |
| 2026-04-29 15:09 | -13.00378 | -74.85229 | 35243 ft | 483 kts | 101° |
| 2026-04-29 15:09 | -13.01145 | -74.81901 | 35459 ft | 483 kts | 101° |
| 2026-04-29 15:10 | -13.01915 | -74.78555 | 35710 ft | 481 kts | 101° |
| 2026-04-29 15:10 | -13.02682 | -74.75221 | 35975 ft | 480 kts | 101° |
| 2026-04-29 15:10 | -13.03457 | -74.71850 | 36188 ft | 479 kts | 101° |
| 2026-04-29 15:10 | -13.04214 | -74.68556 | 36393 ft | 478 kts | 100° |
| 2026-04-29 15:11 | -13.04969 | -74.65265 | 36588 ft | 477 kts | 101° |
| 2026-04-29 15:11 | -13.05739 | -74.61908 | 36696 ft | 478 kts | 101° |
| 2026-04-29 15:11 | -13.06496 | -74.58604 | 36820 ft | 478 kts | 100° |
| 2026-04-29 15:11 | -13.07261 | -74.55271 | 37044 ft | 477 kts | 101° |
| 2026-04-29 15:12 | -13.08015 | -74.51980 | 37306 ft | 475 kts | 101° |
| 2026-04-29 15:12 | -13.09516 | -74.45410 | 37412 ft | 477 kts | 101° |
| 2026-04-29 15:13 | -13.11032 | -74.38778 | 37425 ft | 475 kts | 101° |
| 2026-04-29 15:13 | -13.12543 | -74.32168 | 37430 ft | 474 kts | 101° |
| 2026-04-29 15:14 | -13.14037 | -74.25612 | 37420 ft | 472 kts | 101° |
| 2026-04-29 15:14 | -13.15532 | -74.19047 | 37428 ft | 471 kts | 101° |
| 2026-04-29 15:15 | -13.17011 | -74.12540 | 37436 ft | 470 kts | 101° |
| 2026-04-29 15:15 | -13.18496 | -74.05991 | 37417 ft | 471 kts | 101° |
| 2026-04-29 15:16 | -13.19981 | -73.99437 | 37407 ft | 472 kts | 101° |
| 2026-04-29 15:16 | -13.21466 | -73.92875 | 37379 ft | 474 kts | 101° |
| 2026-04-29 15:17 | -13.22959 | -73.86269 | 37335 ft | 476 kts | 101° |
| 2026-04-29 15:17 | -13.24453 | -73.79653 | 37319 ft | 478 kts | 101° |
| 2026-04-29 15:18 | -13.25955 | -73.72993 | 37302 ft | 478 kts | 101° |
| 2026-04-29 15:18 | -13.27449 | -73.66348 | 37287 ft | 477 kts | 100° |
| 2026-04-29 15:19 | -13.28941 | -73.59716 | 37271 ft | 477 kts | 100° |
| 2026-04-29 15:19 | -13.30430 | -73.53090 | 37263 ft | 477 kts | 100° |
| 2026-04-29 15:20 | -13.31913 | -73.46482 | 37262 ft | 476 kts | 100° |
| 2026-04-29 15:20 | -13.33390 | -73.39887 | 37262 ft | 474 kts | 101° |
| 2026-04-29 15:21 | -13.34868 | -73.33281 | 37270 ft | 470 kts | 100° |